^^
MeteoGriva-Weather Station Historical Data
Daily Summary for August 15, 2020 Units:  English    Metric   Both
Daily Weekly Monthly Yearly Custom
  High: Low: Average:
Temperature: 53.1 °F 37 °F 44.2 °F
Dew Point: 45.1 °F 36.9 °F 40.6 °F
Humidity: 99% 71% 88%
Wind Speed: 0.6mph 0mph 0mph
Wind Gust: 4.9mph - -
Wind- - ESE
Pressure: 30.4 in 30.3 in -
Precipitation: 0 in    
Historical Graphs
 
 
Tabular Data for August 15, 2020
Time Temperature Dew Point Pressure Wind Wind Speed Wind Gust Humidity Rainfall Rate (Hourly) solar
00:04 39.7 °F 39.6 °F 30.3 in Calm     99% 0 in 0 W/m2
00:09 40.3 °F 40.1 °F 30.3 in Calm     98.9% 0 in 0 W/m2
00:14 40.3 °F 39.9 °F 30.3 in Calm     98.5% 0 in 0 W/m2
00:19 40.3 °F 39.9 °F 30.3 in Calm     98.4% 0 in 0 W/m2
00:24 40.3 °F 40.1 °F 30.3 in Calm     99% 0 in 0 W/m2
00:29 39.7 °F 39.6 °F 30.3 in Calm     99% 0 in 0 W/m2
00:34 39.7 °F 39.6 °F 30.3 in Calm     99% 0 in 0 W/m2
00:39 39.7 °F 39.6 °F 30.4 in Calm     99% 0 in 0 W/m2
00:44 39.7 °F 39.6 °F 30.4 in Calm     99% 0 in 0 W/m2
00:49 39.7 °F 39.6 °F 30.3 in Calm     98.9% 0 in 0 W/m2
00:54 39.7 °F 39.6 °F 30.3 in Calm     99% 0 in 0 W/m2
00:59 39.7 °F 39.6 °F 30.4 in Calm     99% 0 in 0 W/m2
01:04 39.7 °F 39.6 °F 30.4 in Calm     99% 0 in 0 W/m2
01:09 39.6 °F 39.4 °F 30.4 in Calm     99% 0 in 0 W/m2
01:14 39.6 °F 39.4 °F 30.4 in Calm     99% 0 in 0 W/m2
01:19 39.6 °F 39.4 °F 30.3 in Calm     99% 0 in 0 W/m2
01:24 39.6 °F 39.4 °F 30.4 in Calm     99% 0 in 0 W/m2
01:29 39.4 °F 39.2 °F 30.4 in Calm     99% 0 in 0 W/m2
01:34 39.4 °F 39.2 °F 30.4 in Calm     99% 0 in 0 W/m2
01:39 39.2 °F 39 °F 30.4 in Calm     99% 0 in 0 W/m2
01:44 39.2 °F 39 °F 30.4 in Calm     99% 0 in 0 W/m2
01:49 38.8 °F 38.8 °F 30.4 in Calm     99% 0 in 0 W/m2
01:54 38.8 °F 38.7 °F 30.4 in Calm     99% 0 in 0 W/m2
01:59 38.8 °F 38.7 °F 30.4 in Calm     99% 0 in 0 W/m2
02:04 38.7 °F 38.7 °F 30.4 in Calm     99% 0 in 0 W/m2
02:09 39.2 °F 39 °F 30.4 in Calm     99% 0 in 0 W/m2
02:14 39.2 °F 39 °F 30.4 in Calm     99% 0 in 0 W/m2
02:19 39.2 °F 39 °F 30.4 in Calm     99% 0 in 0 W/m2
02:24 39 °F 38.8 °F 30.4 in Calm     99% 0 in 0 W/m2
02:29 39.2 °F 39 °F 30.4 in Calm     99% 0 in 0 W/m2
02:34 39.2 °F 38.7 °F 30.4 in Calm     97.9% 0 in 0 W/m2
02:39 39.2 °F 38.3 °F 30.4 in Calm     95.9% 0 in 0 W/m2
02:44 39.4 °F 38.7 °F 30.4 in Calm     96.9% 0 in 0 W/m2
02:49 39.2 °F 38.7 °F 30.4 in Calm     98% 0 in 0 W/m2
02:54 39.2 °F 38.8 °F 30.4 in Calm     98.7% 0 in 0 W/m2
02:59 39.2 °F 39 °F 30.4 in Calm     99% 0 in 0 W/m2
03:04 39.2 °F 39 °F 30.4 in Calm     99% 0 in 0 W/m2
03:09 39 °F 38.7 °F 30.4 in Calm     98.3% 0 in 0 W/m2
03:14 39 °F 38.5 °F 30.4 in Calm     98.2% 0 in 0 W/m2
03:19 38.8 °F 38.7 °F 30.4 in Calm     98.6% 0 in 0 W/m2
03:24 38.8 °F 38.5 °F 30.4 in Calm     98.8% 0 in 0 W/m2
03:29 38.1 °F 37.9 °F 30.4 in Calm     99% 0 in 0 W/m2
03:34 37.8 °F 37.6 °F 30.4 in Calm     99% 0 in 0 W/m2
03:39 37.8 °F 37.6 °F 30.4 in Calm     99% 0 in 0 W/m2
03:44 37.9 °F 37.8 °F 30.4 in Calm     99% 0 in 0 W/m2
03:49 38.1 °F 37.9 °F 30.4 in Calm     99% 0 in 0 W/m2
03:54 38.1 °F 37.9 °F 30.4 in Calm     99% 0 in 0 W/m2
03:59 38.3 °F 38.1 °F 30.4 in Calm     99% 0 in 0 W/m2
04:04 38.5 °F 38.1 °F 30.4 in Calm     99% 0 in 0 W/m2
04:09 38.8 °F 38.7 °F 30.4 in Calm     99% 0 in 0 W/m2
04:14 39 °F 38.8 °F 30.4 in Calm     99% 0 in 0 W/m2
04:19 39 °F 38.8 °F 30.4 in Calm     99% 0 in 0 W/m2
04:24 38.8 °F 38.7 °F 30.4 in Calm     99% 0 in 0 W/m2
04:29 38.3 °F 38.3 °F 30.4 in Calm     99% 0 in 0 W/m2
04:34 37.9 °F 37.9 °F 30.4 in Calm     99% 0 in 0 W/m2
04:39 38.1 °F 37.9 °F 30.4 in Calm     99% 0 in 0 W/m2
04:44 38.1 °F 37.9 °F 30.4 in Calm     99% 0 in 0 W/m2
04:49 37.8 °F 37.6 °F 30.4 in Calm     99% 0 in 0 W/m2
04:54 37.6 °F 37.4 °F 30.4 in Calm     99% 0 in 0 W/m2
04:59 37.6 °F 37.4 °F 30.4 in Calm     99% 0 in 0 W/m2
05:04 37.4 °F 37.2 °F 30.4 in Calm     99% 0 in 0 W/m2
05:09 37.2 °F 37 °F 30.4 in Calm     99% 0 in 0 W/m2
05:14 37 °F 36.9 °F 30.4 in Calm     99% 0 in 0 W/m2
05:19 37.2 °F 37 °F 30.4 in Calm     99% 0 in 0 W/m2
05:24 37.6 °F 37.4 °F 30.4 in Calm     99% 0 in 0 W/m2
05:29 38.7 °F 38.5 °F 30.4 in Calm     98.9% 0 in 0 W/m2
05:34 40.1 °F 39.7 °F 30.4 in Calm     98.2% 0 in 0 W/m2
05:39 40.1 °F 39.6 °F 30.4 in Calm     98.1% 0 in 0 W/m2
05:44 39.9 °F 39.2 °F 30.4 in Calm     96.9% 0 in 0 W/m2
05:49 39.9 °F 38.7 °F 30.4 in Calm     95.2% 0 in 0 W/m2
05:54 39.9 °F 38.7 °F 30.4 in Calm     95% 0 in 0 W/m2
05:59 40.1 °F 38.3 °F 30.4 in Calm     93% 0 in 0 W/m2
06:04 40.3 °F 37.6 °F 30.4 in Calm     90.1% 0 in 0 W/m2
06:09 39.6 °F 37.9 °F 30.4 in Calm     93.9% 0 in 0 W/m2
06:14 38.1 °F 37.4 °F 30.4 in Calm     97.4% 0 in 0 W/m2
06:19 38.1 °F 37.4 °F 30.4 in Calm     97% 0 in 0 W/m2
06:24 38.3 °F 37.8 °F 30.4 in Calm     97.8% 0 in 0 W/m2
06:29 38.8 °F 38.1 °F 30.4 in Calm     97.1% 0 in 0 W/m2
06:34 39.6 °F 38.7 °F 30.4 in Calm     96.3% 0 in 0 W/m2
06:39 39.6 °F 38.5 °F 30.4 in Calm     95.6% 0 in 0 W/m2
06:44 39.7 °F 37.9 °F 30.4 in Calm     93.2% 0 in 0 W/m2
06:49 39.4 °F 38.1 °F 30.4 in Calm     95.2% 0 in 0 W/m2
06:54 38.8 °F 38.3 °F 30.4 in Calm     97.9% 0 in 0 W/m2
06:59 38.8 °F 37.9 °F 30.4 in Calm     96.2% 0 in 0 W/m2
07:04 39 °F 37.4 °F 30.4 in Calm     93.9% 0 in 0 W/m2
07:09 39.7 °F 37.4 °F 30.4 in Calm     91.2% 0 in 0 W/m2
07:14 40.8 °F 38.7 °F 30.4 in Calm     91.6% 0 in 0 W/m2
07:19 40.8 °F 38.5 °F 30.4 in Calm     91.1% 0 in 0 W/m2
07:24 40.8 °F 37.8 °F 30.4 in Calm     89% 0 in 0 W/m2
07:29 41.2 °F 37.6 °F 30.4 in Calm     86.9% 0 in 0 W/m2
07:34 42.4 °F 38.5 °F 30.4 in Calm     85.6% 0 in 0 W/m2
07:39 42.3 °F 38.8 °F 30.4 in Calm     87.2% 0 in 0 W/m2
07:44 42.3 °F 39 °F 30.4 in Calm     88% 0 in 0 W/m2
07:49 42.1 °F 38.8 °F 30.4 in Calm   2.5 mph 88% 0 in 0 W/m2
07:54 42.1 °F 38.5 °F 30.4 in Calm   4.9 mph 87.1% 0 in 0 W/m2
07:59 42.1 °F 38.5 °F 30.4 in Calm     87% 0 in 4 W/m2
08:04 42.1 °F 38.5 °F 30.4 in Calm     87% 0 in 7 W/m2
08:09 42.1 °F 38.7 °F 30.4 in Calm     87.1% 0 in 11 W/m2
08:14 42.4 °F 38.8 °F 30.4 in Calm     87% 0 in 18 W/m2
08:19 42.4 °F 38.5 °F 30.4 in Calm     85.7% 0 in 22 W/m2
08:24 42.8 °F 38.7 °F 30.4 in Calm     85.4% 0 in 27 W/m2
08:29 42.8 °F 39.6 °F 30.4 in Calm     87.8% 0 in 31 W/m2
08:34 43 °F 39.6 °F 30.4 in Calm     87.7% 0 in 36 W/m2
08:39 43.2 °F 39.2 °F 30.4 in Calm     86% 0 in 40 W/m2
08:44 43.3 °F 39 °F 30.4 in Calm     84.4% 0 in 45 W/m2
08:49 43.9 °F 39 °F 30.4 in Calm     83.4% 0 in 49 W/m2
08:54 45.5 °F 40.3 °F 30.4 in Calm     82% 0 in 53 W/m2
08:59 45.5 °F 40.1 °F 30.4 in Calm     81.4% 0 in 56 W/m2
09:04 45.7 °F 39.9 °F 30.4 in Calm     80.4% 0 in 59 W/m2
09:09 45.9 °F 40.1 °F 30.4 in Calm     80.3% 0 in 62 W/m2
09:14 46.8 °F 41 °F 30.4 in Calm     80% 0 in 67 W/m2
09:19 46.8 °F 40.8 °F 30.4 in Calm     79.4% 0 in 68 W/m2
09:24 46.9 °F 40.6 °F 30.4 in Calm     78.9% 0 in 71 W/m2
09:29 46.9 °F 40.8 °F 30.4 in Calm     78.8% 0 in 73 W/m2
09:34 46.8 °F 40.8 °F 30.4 in Calm     79.7% 0 in 76 W/m2
09:39 46.8 °F 40.8 °F 30.4 in Calm     79.3% 0 in 77 W/m2
09:44 46.9 °F 40.6 °F 30.4 in Calm     78.3% 0 in 79 W/m2
09:49 47.1 °F 40.8 °F 30.4 in Calm     78.4% 0 in 81 W/m2
09:54 47.5 °F 41.4 °F 30.4 in Calm     79% 0 in 82 W/m2
09:59 47.5 °F 41.5 °F 30.4 in Calm     79.8% 0 in 83 W/m2
10:04 47.5 °F 41.4 °F 30.4 in Calm     78.8% 0 in 84 W/m2
10:09 47.7 °F 41.5 °F 30.4 in Calm     79.1% 0 in 85 W/m2
10:14 47.5 °F 41.5 °F 30.4 in Calm     80% 0 in 86 W/m2
10:19 47.5 °F 41.4 °F 30.4 in Calm     78.7% 0 in 86 W/m2
10:24 47.7 °F 40.8 °F 30.4 in Calm     77.1% 0 in 87 W/m2
10:29 47.8 °F 41 °F 30.4 in East 0.1 mph 2.5 mph 77% 0 in 88 W/m2
10:34 48.7 °F 42.3 °F 30.4 in Calm     77.6% 0 in 88 W/m2
10:39 48.9 °F 42.4 °F 30.4 in Calm     77.8% 0 in 89 W/m2
10:44 49.1 °F 42.3 °F 30.4 in Calm     77% 0 in 89 W/m2
10:49 48.7 °F 42.4 °F 30.4 in Calm     78.6% 0 in 90 W/m2
10:54 48.6 °F 41.9 °F 30.4 in Calm     77.8% 0 in 92 W/m2
10:59 48.4 °F 42.3 °F 30.4 in Calm     78.9% 0 in 92 W/m2
11:04 48.4 °F 41.9 °F 30.4 in Calm     77.8% 0 in 95 W/m2
11:09 48.2 °F 42.1 °F 30.4 in Calm     78.8% 0 in 97 W/m2
11:14 50.5 °F 43.3 °F 30.4 in Calm     76.2% 0 in 100 W/m2
11:19 50.7 °F 43.5 °F 30.4 in Calm     76.4% 0 in 103 W/m2
11:24 50.5 °F 43.7 °F 30.4 in Calm     77.6% 0 in 106 W/m2
11:29 50.4 °F 43.9 °F 30.4 in SE 0.6 mph 4.9 mph 78.5% 0 in 110 W/m2
11:34 50.4 °F 44.2 °F 30.4 in SE 0.4 mph 4.9 mph 79.6% 0 in 113 W/m2
11:39 50.2 °F 44.6 °F 30.4 in ESE 0.2 mph 4.9 mph 81.1% 0 in 116 W/m2
11:44 50 °F 44.4 °F 30.4 in SE 0.1 mph 4.9 mph 81.3% 0 in 121 W/m2
11:49 49.8 °F 43.7 °F 30.4 in South 0.2 mph 2.5 mph 79.4% 0 in 121 W/m2
11:54 49.8 °F 43.2 °F 30.4 in Calm     78% 0 in 104 W/m2
11:59 49.8 °F 43.2 °F 30.4 in Calm     77.7% 0 in 90 W/m2
12:04 50 °F 43.5 °F 30.4 in SE 0.2 mph 4.9 mph 78.5% 0 in 89 W/m2
12:09 50.2 °F 43.3 °F 30.4 in Calm     78% 0 in 89 W/m2
12:14 50.4 °F 43.5 °F 30.4 in Calm     77.5% 0 in 88 W/m2
12:19 50.4 °F 43.7 °F 30.4 in Calm     78.3% 0 in 89 W/m2
12:24 50 °F 44.4 °F 30.4 in Calm     81.2% 0 in 132 W/m2
12:29 49.6 °F 44.1 °F 30.4 in Calm   2.5 mph 81% 0 in 173 W/m2
12:34 49.5 °F 43.5 °F 30.4 in Calm     80.1% 0 in 176 W/m2
12:39 49.5 °F 43.2 °F 30.4 in East 0.1 mph 2.5 mph 79% 0 in 192 W/m2
12:44 49.5 °F 43.2 °F 30.4 in Calm   2.5 mph 79.1% 0 in 201 W/m2
12:49 49.5 °F 43.2 °F 30.4 in East 0.3 mph 4.9 mph 78.9% 0 in 212 W/m2
12:54 49.5 °F 43 °F 30.4 in Calm   4.9 mph 78.3% 0 in 225 W/m2
12:59 49.5 °F 43 °F 30.4 in Calm   2.5 mph 78.7% 0 in 240 W/m2
13:04 49.6 °F 43 °F 30.4 in Calm   2.5 mph 78% 0 in 250 W/m2
13:09 49.6 °F 42.8 °F 30.4 in ESE 0.1 mph 4.9 mph 77.2% 0 in 263 W/m2
13:14 50.9 °F 43.7 °F 30.4 in Calm     76.4% 0 in 275 W/m2
13:19 51.4 °F 43.7 °F 30.4 in SSE 0.3 mph 4.9 mph 75.1% 0 in 289 W/m2
13:24 51.4 °F 44.2 °F 30.4 in ESE 0.2 mph 4.9 mph 76.7% 0 in 293 W/m2
13:29 51.3 °F 44.2 °F 30.4 in Calm   2.5 mph 76.9% 0 in 301 W/m2
13:34 51.3 °F 43.9 °F 30.4 in Calm   4.9 mph 76% 0 in 307 W/m2
13:39 51.1 °F 43.9 °F 30.4 in Calm   4.9 mph 76.6% 0 in 313 W/m2
13:44 51.1 °F 43.5 °F 30.4 in Calm     75.1% 0 in 318 W/m2
13:49 51.1 °F 43.7 °F 30.4 in Calm     76.1% 0 in 322 W/m2
13:54 51.1 °F 43.9 °F 30.4 in Calm     76.6% 0 in 325 W/m2
13:59 51.1 °F 43.9 °F 30.4 in ESE 0.2 mph 4.9 mph 76.9% 0 in 326 W/m2
14:04 50.9 °F 44.1 °F 30.4 in Calm   2.5 mph 77.4% 0 in 324 W/m2
14:09 50.7 °F 44.4 °F 30.3 in East 0.4 mph 4.9 mph 78.8% 0 in 320 W/m2
14:14 50.4 °F 43.9 °F 30.3 in East 0.4 mph 4.9 mph 78.8% 0 in 320 W/m2
14:19 50 °F 43.5 °F 30.3 in Calm   2.5 mph 78.4% 0 in 319 W/m2
14:24 50 °F 43.3 °F 30.3 in Calm     77.8% 0 in 319 W/m2
14:29 50.2 °F 43.2 °F 30.3 in Calm   2.5 mph 76.8% 0 in 318 W/m2
14:34 50.9 °F 43.9 °F 30.3 in Calm   2.5 mph 77.1% 0 in 317 W/m2
14:39 51.3 °F 44.1 °F 30.3 in Calm     76.6% 0 in 313 W/m2
14:44 51.1 °F 44.1 °F 30.3 in Calm     77% 0 in 309 W/m2
14:49 51.1 °F 43.7 °F 30.3 in Calm     76.2% 0 in 304 W/m2
14:54 50.9 °F 43.7 °F 30.3 in Calm     76.2% 0 in 303 W/m2
14:59 50.7 °F 43.7 °F 30.3 in Calm     76.9% 0 in 293 W/m2
15:04 50.9 °F 43.3 °F 30.3 in Calm     75.2% 0 in 291 W/m2
15:09 50.9 °F 43.3 °F 30.3 in Calm     75.3% 0 in 287 W/m2
15:14 51.4 °F 43.9 °F 30.3 in Calm     75.1% 0 in 286 W/m2
15:19 52.2 °F 43.5 °F 30.3 in Calm     72.6% 0 in 280 W/m2
15:24 52.3 °F 43.9 °F 30.3 in Calm     73% 0 in 273 W/m2
15:29 52.3 °F 43.9 °F 30.3 in Calm     72.9% 0 in 265 W/m2
15:34 52.3 °F 44.4 °F 30.3 in Calm     74.6% 0 in 258 W/m2
15:39 52.3 °F 44.4 °F 30.3 in SE 0.2 mph 4.9 mph 74.7% 0 in 246 W/m2
15:44 52.3 °F 44.1 °F 30.3 in Calm     73.6% 0 in 235 W/m2
15:49 52.3 °F 43.7 °F 30.3 in Calm     72.8% 0 in 226 W/m2
15:54 52.5 °F 44.1 °F 30.3 in Calm     72.9% 0 in 218 W/m2
15:59 52.7 °F 43.5 °F 30.3 in Calm     71% 0 in 197 W/m2
16:04 53.1 °F 43.9 °F 30.3 in Calm     71% 0 in 54 W/m2
16:09 53.1 °F 45.1 °F 30.3 in Calm     74.6% 0 in 48 W/m2
16:14 51.3 °F 44.8 °F 30.3 in Calm     78.4% 0 in 45 W/m2
16:19 48.9 °F 43 °F 30.3 in Calm     79.9% 0 in 42 W/m2
16:24 48.9 °F 43.2 °F 30.3 in Calm     80.7% 0 in 38 W/m2
16:29 48.7 °F 43.3 °F 30.3 in Calm     81% 0 in 35 W/m2
16:34 48.4 °F 43 °F 30.3 in Calm     81.8% 0 in 32 W/m2
16:39 47.5 °F 42.4 °F 30.3 in Calm     82.7% 0 in 30 W/m2
16:44 47.5 °F 42.6 °F 30.3 in Calm     83.3% 0 in 27 W/m2
16:49 47.3 °F 42.8 °F 30.3 in Calm     84% 0 in 24 W/m2
16:54 46.8 °F 42.3 °F 30.3 in Calm     84% 0 in 22 W/m2
16:59 46.2 °F 41.7 °F 30.3 in Calm     84% 0 in 19 W/m2
17:04 46 °F 41.7 °F 30.3 in Calm     84.9% 0 in 16 W/m2
17:09 46 °F 42.1 °F 30.3 in Calm     85.9% 0 in 12 W/m2
17:14 45.7 °F 42.1 °F 30.4 in Calm     87% 0 in 9 W/m2
17:19 45.1 °F 41.5 °F 30.4 in Calm     87% 0 in 6 W/m2
17:24 45.1 °F 41.7 °F 30.4 in Calm     87.8% 0 in 3 W/m2
17:29 45 °F 41.7 °F 30.4 in Calm     88.6% 0 in 0 W/m2
17:34 45 °F 41.7 °F 30.4 in Calm     88.4% 0 in 0 W/m2
17:39 44.8 °F 41.7 °F 30.4 in Calm     88.9% 0 in 0 W/m2
17:44 44.8 °F 41.7 °F 30.4 in Calm     89.2% 0 in 0 W/m2
17:49 44.8 °F 41.9 °F 30.4 in Calm     89.3% 0 in 0 W/m2
17:54 44.8 °F 41.5 °F 30.4 in Calm     88.4% 0 in 0 W/m2
17:59 45 °F 41.9 °F 30.4 in Calm     88.8% 0 in 0 W/m2
18:04 45 °F 42.1 °F 30.4 in Calm     89.6% 0 in 0 W/m2
18:09 44.8 °F 41.7 °F 30.4 in Calm     89% 0 in 0 W/m2
18:14 44.8 °F 41.4 °F 30.4 in Calm     88% 0 in 0 W/m2
18:19 45.1 °F 41.5 °F 30.4 in Calm     87.3% 0 in 0 W/m2
18:24 45.1 °F 41.5 °F 30.4 in Calm     87% 0 in 0 W/m2
18:29 45 °F 41.5 °F 30.4 in Calm     87.7% 0 in 0 W/m2
18:34 45 °F 41.4 °F 30.4 in Calm     87.2% 0 in 0 W/m2
18:39 45 °F 41.4 °F 30.4 in Calm     87% 0 in 0 W/m2
18:44 45 °F 41.4 °F 30.4 in Calm     87% 0 in 0 W/m2
18:49 45 °F 41.4 °F 30.4 in Calm     87% 0 in 0 W/m2
18:54 44.8 °F 41.2 °F 30.4 in Calm     87% 0 in 0 W/m2
18:59 44.8 °F 41.4 °F 30.4 in Calm     87.1% 0 in 0 W/m2
19:04 45 °F 41.4 °F 30.4 in Calm     86.7% 0 in 0 W/m2
19:09 45 °F 41.4 °F 30.4 in Calm     87% 0 in 0 W/m2
19:14 44.8 °F 41.2 °F 30.4 in Calm     87% 0 in 0 W/m2
19:19 44.6 °F 41 °F 30.4 in Calm     87% 0 in 0 W/m2
19:24 44.6 °F 41 °F 30.4 in Calm     87% 0 in 0 W/m2
19:29 44.6 °F 41 °F 30.4 in Calm     87.3% 0 in 0 W/m2
19:34 44.4 °F 41.4 °F 30.4 in Calm     89.1% 0 in 0 W/m2
19:39 43.9 °F 41.2 °F 30.4 in Calm     89.8% 0 in 0 W/m2
19:44 43.9 °F 41.2 °F 30.4 in Calm     90% 0 in 0 W/m2
19:49 44.1 °F 41.4 °F 30.4 in Calm     90% 0 in 0 W/m2
19:54 44.1 °F 41 °F 30.4 in Calm     89.1% 0 in 0 W/m2
19:59 43.5 °F 40.8 °F 30.4 in Calm     90% 0 in 0 W/m2
20:04 43.5 °F 41 °F 30.4 in Calm     90.3% 0 in 0 W/m2
20:09 43.5 °F 41 °F 30.4 in Calm     91% 0 in 0 W/m2
20:14 43.5 °F 41.2 °F 30.4 in Calm     91.7% 0 in 0 W/m2
20:19 43.2 °F 41 °F 30.4 in Calm     92.1% 0 in 0 W/m2
20:24 43.2 °F 41.4 °F 30.4 in Calm     93% 0 in 0 W/m2
20:29 43.2 °F 41.2 °F 30.4 in Calm     92.7% 0 in 0 W/m2
20:34 43 °F 41 °F 30.4 in Calm     92.7% 0 in 0 W/m2
20:39 42.6 °F 40.5 °F 30.4 in Calm     92% 0 in 0 W/m2
20:44 42.6 °F 40.1 °F 30.4 in Calm     90.8% 0 in 0 W/m2
20:49 42.6 °F 40.1 °F 30.4 in Calm     90.9% 0 in 0 W/m2
20:54 42.6 °F 40.1 °F 30.4 in Calm     91% 0 in 0 W/m2
20:59 43.2 °F 40.5 °F 30.4 in Calm     90.6% 0 in 0 W/m2
21:04 43 °F 40.6 °F 30.4 in Calm     91.6% 0 in 0 W/m2
21:09 42.8 °F 40.6 °F 30.4 in Calm     91.9% 0 in 0 W/m2
21:14 42.8 °F 40.3 °F 30.4 in Calm     91% 0 in 0 W/m2
21:19 43 °F 40.3 °F 30.4 in Calm     90.1% 0 in 0 W/m2
21:24 42.8 °F 40.5 °F 30.4 in Calm     91.2% 0 in 0 W/m2
21:29 42.8 °F 40.3 °F 30.4 in Calm     91% 0 in 0 W/m2
21:34 42.6 °F 40.3 °F 30.4 in Calm     91.3% 0 in 0 W/m2
21:39 42.1 °F 39.9 °F 30.4 in Calm     92% 0 in 0 W/m2
21:44 42.1 °F 39.9 °F 30.4 in Calm     91.9% 0 in 0 W/m2
21:49 42.1 °F 39.6 °F 30.4 in Calm     91% 0 in 0 W/m2
21:54 42.3 °F 39.7 °F 30.4 in Calm     91.1% 0 in 0 W/m2
21:59 42.6 °F 40.1 °F 30.4 in Calm     90.4% 0 in 0 W/m2
22:04 42.8 °F 39.9 °F 30.4 in Calm     89.3% 0 in 0 W/m2
22:09 42.8 °F 40.1 °F 30.4 in Calm     89.9% 0 in 0 W/m2
22:14 42.8 °F 40.1 °F 30.4 in Calm     90.4% 0 in 0 W/m2
22:19 42.8 °F 40.1 °F 30.4 in Calm     90.1% 0 in 0 W/m2
22:24 42.8 °F 40.1 °F 30.4 in Calm     90% 0 in 0 W/m2
22:29 42.8 °F 40.1 °F 30.4 in Calm     90.2% 0 in 0 W/m2
22:34 42.8 °F 39.7 °F 30.4 in Calm     89% 0 in 0 W/m2
22:39 42.6 °F 39.7 °F 30.4 in Calm     89.3% 0 in 0 W/m2
22:44 42.6 °F 39.9 °F 30.4 in Calm     89.9% 0 in 0 W/m2
22:49 42.6 °F 39.7 °F 30.4 in Calm     89.2% 0 in 0 W/m2
22:54 42.6 °F 39.6 °F 30.4 in Calm     89.1% 0 in 0 W/m2
22:59 43 °F 39.7 °F 30.4 in Calm     88% 0 in 0 W/m2
23:04 43.3 °F 40.1 °F 30.4 in Calm     87.8% 0 in 0 W/m2
23:09 43.3 °F 40.3 °F 30.4 in Calm     88.6% 0 in 0 W/m2
23:14 43.3 °F 40.6 °F 30.4 in Calm     90% 0 in 0 W/m2
23:19 42.8 °F 40.3 °F 30.4 in Calm     91% 0 in 0 W/m2
23:24 42.4 °F 40.1 °F 30.4 in Calm     91.4% 0 in 0 W/m2
23:29 42.4 °F 40.3 °F 30.4 in Calm     92% 0 in 0 W/m2
23:34 42.4 °F 40.3 °F 30.4 in Calm     92.3% 0 in 0 W/m2
23:39 41.9 °F 39.9 °F 30.4 in Calm     92.4% 0 in 0 W/m2
23:44 41.7 °F 39.9 °F 30.4 in Calm     93% 0 in 0 W/m2
23:49 41.7 °F 39.9 °F 30.4 in Calm     93% 0 in 0 W/m2
23:54 41.7 °F 39.7 °F 30.4 in Calm     92.9% 0 in 0 W/m2
23:59 41.5 °F 39.6 °F 30.4 in Calm     92% 0 in 0 W/m2
Juneau County Weather
Compliments of Weather Underground - 2 mb